Time;durP1;ratioP1;P1;durP2;ratioP2;P2;SDS_P1;SDS_P2;PMS_P1;PMS_P2;Temp;Humidity;BMP_temperature;BMP_pressure;BME280_temperature;BME280_humidity;BME280_pressure;Samples;Min_cycle;Max_cycle;Signal;HPM_P1;HPM_P2
2023/02/11 00:00:01;;;;;;;63.30;26.98;;;;;;;8.15;51.25;102578.94;5018674;28;99356;-71
2023/02/11 00:02:28;;;;;;;59.03;26.60;;;;;;;7.93;51.86;102585.88;5024979;28;97139;-71
2023/02/11 00:04:54;;;;;;;59.30;26.77;;;;;;;7.91;51.85;102572.72;5029407;28;97266;-70
2023/02/11 00:07:21;;;;;;;65.43;26.92;;;;;;;7.82;51.87;102569.13;5026383;28;99048;-70
2023/02/11 00:09:47;;;;;;;57.63;25.35;;;;;;;7.78;52.53;102580.53;5021829;28;98210;-70
2023/02/11 00:12:14;;;;;;;61.35;27.50;;;;;;;7.77;52.27;102584.91;5019971;28;97088;-71
2023/02/11 00:14:41;;;;;;;65.78;29.00;;;;;;;7.79;52.21;102591.09;5018136;28;98135;-71
2023/02/11 00:17:09;;;;;;;63.78;26.92;;;;;;;7.62;52.82;102597.97;5013445;28;99523;-71
2023/02/11 00:19:35;;;;;;;55.58;26.55;;;;;;;7.74;52.71;102610.34;5023499;28;99062;-70
2023/02/11 00:22:02;;;;;;;55.67;26.20;;;;;;;7.66;53.22;102614.69;5016970;27;96800;-70
2023/02/11 00:24:28;;;;;;;55.83;26.58;;;;;;;7.75;52.94;102604.19;5024256;27;98754;-70
2023/02/11 00:26:55;;;;;;;61.67;26.52;;;;;;;7.60;53.32;102587.47;5022471;27;99012;-70
2023/02/11 00:29:22;;;;;;;58.50;27.58;;;;;;;7.88;52.58;102575.31;5017836;27;98814;-70
2023/02/11 00:31:48;;;;;;;55.78;25.65;;;;;;;7.66;53.06;102565.56;5016725;27;99898;-71
2023/02/11 00:34:16;;;;;;;54.47;26.17;;;;;;;7.87;52.60;102563.06;5019753;27;97259;-72
2023/02/11 00:36:42;;;;;;;57.97;26.17;;;;;;;7.66;52.93;102562.06;5017148;28;99435;-71
2023/02/11 00:39:09;;;;;;;52.20;25.60;;;;;;;7.77;53.08;102560.34;5030849;28;97222;-72
2023/02/11 00:41:35;;;;;;;60.30;26.23;;;;;;;7.98;52.65;102565.72;5023668;28;97618;-72
2023/02/11 00:44:03;;;;;;;55.95;26.55;;;;;;;7.84;53.19;102556.88;5021652;27;97099;-72
2023/02/11 00:46:31;;;;;;;56.65;26.58;;;;;;;7.86;53.21;102560.41;5033090;27;98892;-72
2023/02/11 00:48:58;;;;;;;55.10;25.20;;;;;;;7.98;53.04;102584.16;5023959;27;99579;-71
2023/02/11 00:51:26;;;;;;;52.90;25.90;;;;;;;8.12;52.55;102585.09;5023072;28;97044;-72
2023/02/11 00:53:53;;;;;;;58.35;26.45;;;;;;;8.18;52.54;102577.22;5029453;27;98646;-71
2023/02/11 00:56:20;;;;;;;54.35;25.15;;;;;;;8.24;52.49;102579.84;5029128;27;98917;-71
2023/02/11 00:58:46;;;;;;;59.38;27.58;;;;;;;8.19;52.46;102570.19;5026257;27;99518;-73
2023/02/11 01:01:13;;;;;;;54.78;25.50;;;;;;;8.26;52.40;102570.22;5029831;27;97228;-71
2023/02/11 01:03:40;;;;;;;52.25;25.02;;;;;;;8.20;52.65;102567.56;5028306;27;98584;-71
2023/02/11 01:06:08;;;;;;;53.40;27.00;;;;;;;8.23;52.38;102566.69;5021062;27;99051;-72
2023/02/11 01:08:36;;;;;;;53.25;26.05;;;;;;;8.21;52.58;102548.22;5027589;27;100700;-71
2023/02/11 01:11:04;;;;;;;59.50;26.48;;;;;;;8.16;52.96;102536.81;5025586;27;96874;-71
2023/02/11 01:13:32;;;;;;;57.63;27.20;;;;;;;8.25;53.07;102531.59;5025698;27;97910;-71
2023/02/11 01:15:58;;;;;;;58.95;26.80;;;;;;;8.11;53.94;102522.75;5027997;27;99203;-71
2023/02/11 01:18:25;;;;;;;52.85;25.10;;;;;;;8.23;53.46;102512.25;5028926;27;99924;-71
2023/02/11 01:20:52;;;;;;;54.15;26.42;;;;;;;8.24;53.70;102498.22;5022747;27;97712;-71
2023/02/11 01:23:19;;;;;;;58.85;27.60;;;;;;;8.25;53.56;102497.34;5025568;27;97243;-71
2023/02/11 01:25:47;;;;;;;56.40;26.23;;;;;;;8.15;53.67;102499.94;5025412;28;98905;-71
2023/02/11 01:28:16;;;;;;;51.38;24.70;;;;;;;8.05;53.75;102503.44;5017640;28;99418;-71
2023/02/11 01:30:43;;;;;;;57.05;27.35;;;;;;;8.19;53.39;102504.34;5028128;27;97309;-72
2023/02/11 01:33:09;;;;;;;53.47;26.48;;;;;;;8.15;53.60;102494.66;5026099;27;97009;-71
2023/02/11 01:35:38;;;;;;;55.35;26.02;;;;;;;8.15;53.44;102495.56;5031352;27;98892;-70
2023/02/11 01:38:04;;;;;;;59.10;26.90;;;;;;;8.30;53.07;102486.81;5023407;27;99629;-71
2023/02/11 01:40:31;;;;;;;55.28;26.45;;;;;;;8.35;52.83;102490.34;5023156;27;98866;-71
2023/02/11 01:42:58;;;;;;;51.55;25.50;;;;;;;8.12;53.40;102492.94;5026968;27;96773;-71
2023/02/11 01:45:57;;;;;;;49.40;23.40;;;;;;;8.16;53.30;102489.41;5018771;27;97930;-72
2023/02/11 01:48:27;;;;;;;49.67;24.15;;;;;;;7.92;54.24;102471.81;5031851;27;98808;-71
2023/02/11 01:50:57;;;;;;;57.22;25.88;;;;;;;7.63;55.21;102452.41;5023376;28;98686;-71
2023/02/11 01:58:57;;;;;;;49.72;24.85;;;;;;;8.01;54.22;102477.09;5020035;28;97088;-70
2023/02/11 02:01:26;;;;;;;59.17;26.05;;;;;;;8.25;53.90;102481.53;5023831;28;97265;-70
2023/02/11 02:04:00;;;;;;;56.13;26.23;;;;;;;8.28;53.81;102473.63;5028499;27;96775;-71
2023/02/11 02:06:34;;;;;;;53.95;26.77;;;;;;;8.30;53.73;102461.38;5030059;28;98947;-71
2023/02/11 02:09:06;;;;;;;56.45;25.45;;;;;;;8.14;54.35;102450.81;5018550;28;99144;-72
2023/02/11 02:11:32;;;;;;;51.45;26.58;;;;;;;8.20;54.32;102466.63;5022059;28;96794;-71
2023/02/11 02:14:00;;;;;;;54.95;27.33;;;;;;;8.49;53.74;102466.66;5020336;28;97783;-72
2023/02/11 02:16:31;;;;;;;61.70;25.15;;;;;;;8.21;54.55;102463.06;5024191;28;99490;-70
2023/02/11 02:19:17;;;;;;;51.70;25.70;;;;;;;8.44;54.11;102468.41;5024307;28;99097;-71
2023/02/11 02:22:22;;;;;;;47.78;25.73;;;;;;;8.39;54.25;102455.25;5023630;27;97202;-71
2023/02/11 02:24:59;;;;;;;57.67;26.13;;;;;;;8.33;54.84;102461.41;5028271;27;96772;-71
2023/02/11 02:27:47;;;;;;;54.72;26.27;;;;;;;8.11;55.58;102456.06;5026634;28;98850;-71
2023/02/11 02:30:47;;;;;;;51.63;25.42;;;;;;;8.38;55.15;102457.00;5015739;27;102485;-70
2023/02/11 02:33:36;;;;;;;51.95;26.02;;;;;;;8.31;55.42;102460.50;5032027;27;97109;-71
2023/02/11 02:36:12;;;;;;;55.55;27.23;;;;;;;8.43;54.94;102449.09;5027311;27;100383;-71
2023/02/11 02:38:44;;;;;;;57.23;27.67;;;;;;;8.51;55.18;102435.94;5025454;27;98930;-71
2023/02/11 02:41:14;;;;;;;58.90;27.52;;;;;;;8.25;55.90;102447.31;5025011;27;99264;-70
2023/02/11 02:43:43;;;;;;;58.47;26.88;;;;;;;8.34;55.80;102439.44;5030506;27;96795;-71
2023/02/11 02:46:13;;;;;;;54.67;27.85;;;;;;;8.65;55.00;102432.41;5027716;27;97119;-70
2023/02/11 02:48:42;;;;;;;60.03;27.83;;;;;;;8.53;55.29;102416.63;5022290;27;100937;-71
2023/02/11 02:51:20;;;;;;;56.50;28.33;;;;;;;8.47;55.16;102413.13;5021690;28;98046;-71
2023/02/11 02:53:59;;;;;;;59.20;28.65;;;;;;;8.36;56.03;102428.91;5026065;27;97940;-71
2023/02/11 02:56:35;;;;;;;65.32;29.33;;;;;;;8.55;55.40;102429.78;5028988;27;97205;-71
2023/02/11 02:59:28;;;;;;;61.60;28.83;;;;;;;8.43;55.62;102428.03;5026117;27;98970;-71
2023/02/11 03:02:04;;;;;;;61.00;29.17;;;;;;;8.59;55.92;102421.00;5015257;27;102348;-72
2023/02/11 03:04:38;;;;;;;59.53;28.10;;;;;;;8.64;55.63;102412.22;5022847;28;97627;-71
2023/02/11 03:07:12;;;;;;;60.45;29.50;;;;;;;8.67;55.60;102409.56;5027651;27;96874;-71
2023/02/11 03:09:42;;;;;;;55.05;27.40;;;;;;;8.65;55.63;102403.44;5022392;27;101365;-71
2023/02/11 03:12:10;;;;;;;62.55;30.13;;;;;;;8.44;56.44;102413.09;5028499;27;98599;-71
2023/02/11 03:14:38;;;;;;;56.10;28.55;;;;;;;8.44;56.68;102418.38;5028329;27;98800;-71
2023/02/11 03:17:08;;;;;;;61.53;29.80;;;;;;;8.52;56.25;102408.72;5031635;27;97481;-71
2023/02/11 03:19:38;;;;;;;63.67;29.30;;;;;;;8.52;56.17;102396.41;5026467;27;99144;-71
2023/02/11 03:22:08;;;;;;;61.83;29.67;;;;;;;8.75;55.64;102399.00;5028237;27;98717;-72
2023/02/11 03:24:38;;;;;;;58.70;27.95;;;;;;;8.90;55.36;102409.53;5034176;27;97151;-72
2023/02/11 03:27:10;;;;;;;59.92;29.05;;;;;;;9.01;55.18;102405.09;5034044;27;97577;-71
2023/02/11 03:29:42;;;;;;;64.88;29.30;;;;;;;8.76;55.99;102408.66;5023685;27;98838;-71
2023/02/11 03:32:15;;;;;;;60.70;29.05;;;;;;;8.75;56.11;102402.53;5028177;27;98094;-71
2023/02/11 03:34:49;;;;;;;58.45;30.55;;;;;;;8.67;56.36;102411.31;5027912;27;96777;-71
2023/02/11 03:37:19;;;;;;;53.35;29.08;;;;;;;8.80;56.06;102413.03;5030909;28;97102;-72
2023/02/11 03:39:51;;;;;;;52.05;29.15;;;;;;;8.74;56.31;102402.50;5017829;28;97357;-71
2023/02/11 03:42:19;;;;;;;63.65;30.25;;;;;;;8.76;55.96;102401.66;5024281;28;99028;-71
2023/02/11 03:44:51;;;;;;;61.47;30.38;;;;;;;8.71;56.50;102389.38;5022992;28;96855;-71
2023/02/11 03:47:22;;;;;;;56.80;29.70;;;;;;;8.84;56.42;102398.13;5029917;28;96697;-70
2023/02/11 03:49:51;;;;;;;61.17;29.33;;;;;;;8.63;57.00;102401.66;5024242;27;99616;-71
2023/02/11 03:52:20;;;;;;;59.75;29.85;;;;;;;8.70;56.91;102406.03;5025312;28;98973;-72
2023/02/11 03:54:51;;;;;;;63.00;30.98;;;;;;;8.66;57.25;102405.16;5026960;28;96668;-71
2023/02/11 03:57:17;;;;;;;58.20;29.85;;;;;;;8.63;57.37;102410.44;5030485;28;97053;-72
2023/02/11 03:59:51;;;;;;;69.82;30.63;;;;;;;8.70;57.03;102406.03;5023630;28;99254;-71
2023/02/11 04:02:18;;;;;;;61.95;31.20;;;;;;;8.96;56.58;102417.41;5028559;28;98985;-72
2023/02/11 04:04:46;;;;;;;61.15;29.63;;;;;;;8.73;56.91;102403.38;5019022;28;96958;-72
2023/02/11 04:07:14;;;;;;;61.78;31.42;;;;;;;8.71;57.50;102400.78;5029153;27;97143;-72
2023/02/11 04:09:40;;;;;;;69.20;30.55;;;;;;;8.80;57.45;102400.75;5027591;27;98956;-70
2023/02/11 04:12:07;;;;;;;66.38;31.02;;;;;;;8.77;57.70;102398.13;5027208;28;98850;-71
2023/02/11 04:14:34;;;;;;;66.30;31.70;;;;;;;8.74;57.53;102405.16;5029931;28;96826;-72
2023/02/11 04:17:01;;;;;;;62.42;30.42;;;;;;;8.70;58.16;102404.28;5029889;28;98169;-71
2023/02/11 04:19:27;;;;;;;68.10;31.25;;;;;;;8.73;57.96;102403.38;5020608;28;99560;-72
2023/02/11 04:21:54;;;;;;;61.55;31.38;;;;;;;8.55;58.63;102406.06;5030165;27;97749;-71
2023/02/11 04:24:21;;;;;;;64.20;31.02;;;;;;;8.56;59.10;102405.19;5032302;27;96842;-71
2023/02/11 04:26:48;;;;;;;64.13;32.50;;;;;;;8.66;58.87;102409.59;5026634;28;97178;-71
2023/02/11 04:29:14;;;;;;;67.18;32.92;;;;;;;8.81;58.36;102401.63;5027983;27;98894;-71
2023/02/11 04:31:41;;;;;;;68.97;33.85;;;;;;;8.82;58.38;102406.03;5032979;27;98907;-72
2023/02/11 04:34:07;;;;;;;62.22;32.40;;;;;;;8.83;58.63;102396.34;5032600;27;96746;-72
2023/02/11 04:36:34;;;;;;;62.65;32.25;;;;;;;8.92;58.19;102405.13;5034168;27;98413;-71
2023/02/11 04:39:00;;;;;;;66.03;33.10;;;;;;;8.81;58.77;102393.72;5033058;27;99438;-70
2023/02/11 04:41:28;;;;;;;65.63;32.88;;;;;;;8.62;59.78;102389.38;5027944;27;97516;-71
2023/02/11 04:43:54;;;;;;;68.82;32.92;;;;;;;8.78;59.83;102385.84;5022389;27;97872;-70
2023/02/11 04:46:21;;;;;;;68.35;33.10;;;;;;;8.75;59.62;102384.06;5028928;27;96944;-71
2023/02/11 04:48:47;;;;;;;69.40;33.80;;;;;;;8.63;60.33;102389.38;5023598;27;100793;-70
2023/02/11 04:51:14;;;;;;;64.97;33.50;;;;;;;8.64;60.78;102388.50;5023255;27;98862;-70
2023/02/11 04:53:41;;;;;;;62.67;32.63;;;;;;;8.79;60.43;102385.81;5022005;27;96831;-72
2023/02/11 04:56:07;;;;;;;69.30;34.83;;;;;;;8.70;60.61;102380.56;5029723;27;97065;-71
2023/02/11 04:58:35;;;;;;;68.28;33.88;;;;;;;8.98;60.17;102370.84;5021111;28;101625;-71
2023/02/11 05:01:06;;;;;;;70.55;35.03;;;;;;;9.03;59.46;102365.53;5025780;27;99040;-71
2023/02/11 05:03:32;;;;;;;69.22;34.63;;;;;;;9.10;59.18;102360.25;5031575;27;96822;-71
2023/02/11 05:05:59;;;;;;;72.10;34.70;;;;;;;8.87;60.40;102361.19;5024545;27;97042;-71
2023/02/11 05:08:26;;;;;;;72.68;34.38;;;;;;;8.96;60.60;102362.06;5029272;27;98448;-71
2023/02/11 05:10:52;;;;;;;73.07;36.67;;;;;;;8.91;60.43;102350.66;5016435;27;99165;-71
2023/02/11 05:13:19;;;;;;;64.55;34.10;;;;;;;9.00;60.54;102347.09;5027537;27;96738;-71
2023/02/11 05:15:46;;;;;;;66.97;35.03;;;;;;;9.06;60.08;102347.94;5023570;27;97105;-71
2023/02/11 05:18:13;;;;;;;73.65;35.00;;;;;;;9.11;59.85;102343.53;5029648;27;101567;-71
2023/02/11 05:20:40;;;;;;;68.93;34.42;;;;;;;8.97;60.96;102333.94;5030932;27;98867;-72
2023/02/11 05:23:06;;;;;;;75.05;36.33;;;;;;;8.75;61.71;102341.03;5027524;28;97755;-72
2023/02/11 05:25:33;;;;;;;73.10;35.53;;;;;;;8.88;61.29;102326.03;5031920;27;97264;-70
2023/02/11 05:27:59;;;;;;;72.72;36.50;;;;;;;8.82;61.57;102318.16;5019879;27;99462;-68
2023/02/11 05:30:28;;;;;;;71.70;36.60;;;;;;;8.78;61.99;102312.03;5018488;27;99902;-68
2023/02/11 05:32:56;;;;;;;76.28;34.95;;;;;;;8.76;62.37;102326.97;5032231;27;97604;-69
2023/02/11 05:35:22;;;;;;;72.30;35.83;;;;;;;8.71;62.52;102320.84;5030139;27;97502;-69
2023/02/11 05:37:49;;;;;;;76.47;35.28;;;;;;;9.03;62.01;102323.34;5025454;27;101526;-68
2023/02/11 05:40:16;;;;;;;69.55;36.47;;;;;;;8.82;62.71;102307.63;5017188;28;98132;-71
2023/02/11 05:42:42;;;;;;;67.85;34.45;;;;;;;8.96;62.10;102304.06;5022925;28;97177;-69
2023/02/11 05:45:09;;;;;;;83.45;37.25;;;;;;;9.03;62.41;102302.25;5025140;28;96788;-68
2023/02/11 05:47:36;;;;;;;75.68;37.30;;;;;;;8.78;63.18;102298.84;5028931;27;97827;-68
2023/02/11 05:50:03;;;;;;;79.95;37.42;;;;;;;8.72;63.59;102299.75;5021417;27;98875;-69
2023/02/11 05:52:30;;;;;;;77.40;36.80;;;;;;;8.63;64.48;102293.63;5026399;28;96778;-68
2023/02/11 05:54:56;;;;;;;75.72;37.78;;;;;;;8.74;64.22;102312.91;5016419;28;96777;-69
2023/02/11 05:57:23;;;;;;;80.78;38.25;;;;;;;8.86;64.33;102306.75;5024077;28;101938;-68
2023/02/11 05:59:49;;;;;;;77.57;37.05;;;;;;;8.95;64.13;102309.31;5022050;28;99003;-69
2023/02/11 06:02:16;;;;;;;79.32;38.70;;;;;;;8.87;63.85;102308.47;5029192;28;96790;-68
2023/02/11 06:04:43;;;;;;;71.22;36.67;;;;;;;9.07;63.94;102307.50;5023021;28;96845;-68
2023/02/11 06:07:11;;;;;;;83.13;39.00;;;;;;;8.92;64.27;102312.88;5028250;28;98583;-70
2023/02/11 06:09:37;;;;;;;84.32;38.42;;;;;;;9.11;63.94;102327.72;5023244;27;98484;-68
2023/02/11 06:12:04;;;;;;;78.35;37.20;;;;;;;9.20;63.34;102325.03;5030873;28;96697;-69
2023/02/11 06:14:32;;;;;;;80.72;38.55;;;;;;;9.21;63.78;102328.53;5018559;28;98039;-69
2023/02/11 06:16:58;;;;;;;78.50;38.75;;;;;;;9.13;64.50;102320.66;5012598;28;98954;-70
2023/02/11 06:19:25;;;;;;;81.15;39.75;;;;;;;8.98;65.13;102317.22;5022776;28;97675;-70
2023/02/11 06:21:51;;;;;;;84.97;41.22;;;;;;;9.02;64.65;102319.84;5027843;27;97351;-70
2023/02/11 06:24:19;;;;;;;80.78;39.22;;;;;;;9.05;64.93;102324.25;5026724;27;96856;-69
2023/02/11 06:26:45;;;;;;;86.07;40.33;;;;;;;8.91;65.66;102321.66;5023102;27;98911;-69
2023/02/11 06:29:12;;;;;;;81.82;37.47;;;;;;;9.11;65.18;102321.56;5022401;27;98749;-69
2023/02/11 06:31:39;;;;;;;84.65;40.05;;;;;;;9.26;64.32;102310.03;5023573;27;97489;-69
2023/02/11 06:34:06;;;;;;;82.20;38.50;;;;;;;9.21;64.86;102304.81;5017514;27;97314;-69
2023/02/11 06:36:33;;;;;;;86.60;41.15;;;;;;;9.20;65.41;102303.94;5031512;27;99120;-69
2023/02/11 06:38:59;;;;;;;83.00;39.90;;;;;;;9.11;65.59;102297.84;5026560;28;100254;-69
2023/02/11 06:41:27;;;;;;;88.30;40.13;;;;;;;9.06;66.27;102295.19;5026357;27;97717;-69
2023/02/11 06:43:56;;;;;;;82.20;39.88;;;;;;;8.98;66.59;102291.75;5028367;27;96892;-70
2023/02/11 06:46:23;;;;;;;81.90;40.33;;;;;;;9.04;66.94;102286.44;5025623;27;98165;-69
2023/02/11 06:48:49;;;;;;;84.40;40.67;;;;;;;9.04;66.67;102297.00;5026909;27;99176;-69
2023/02/11 06:51:16;;;;;;;88.78;40.78;;;;;;;9.18;66.54;102297.81;5022299;27;97937;-68
2023/02/11 06:53:45;;;;;;;84.47;39.00;;;;;;;9.01;67.10;102304.03;5023385;27;99175;-69
2023/02/11 06:56:14;;;;;;;94.32;42.58;;;;;;;9.21;66.88;102304.81;5028158;27;99440;-69
2023/02/11 06:58:42;;;;;;;86.95;40.42;;;;;;;9.17;67.19;102303.06;5020665;27;98794;-69
2023/02/11 07:01:11;;;;;;;85.63;40.58;;;;;;;9.08;67.15;102301.34;5029238;27;96814;-71
2023/02/11 07:03:41;;;;;;;93.00;41.97;;;;;;;8.97;68.44;102304.94;5018867;27;96852;-70
2023/02/11 07:06:11;;;;;;;89.20;41.92;;;;;;;9.04;67.83;102296.13;5027030;27;99119;-68
2023/02/11 07:08:39;;;;;;;84.82;40.88;;;;;;;9.26;67.38;102302.13;5024349;27;98364;-68
2023/02/11 07:11:09;;;;;;;89.97;40.83;;;;;;;9.29;67.40;102297.72;5026974;27;96872;-68
2023/02/11 07:13:36;;;;;;;88.47;41.97;;;;;;;9.15;68.21;102307.47;5024441;27;99108;-69
2023/02/11 07:16:06;;;;;;;88.95;39.70;;;;;;;9.10;68.28;102296.09;5019199;27;100832;-70
2023/02/11 07:18:32;;;;;;;85.20;41.05;;;;;;;9.23;68.32;102292.50;5025172;27;98927;-68
2023/02/11 07:20:58;;;;;;;93.18;43.47;;;;;;;9.26;67.96;102291.59;5029876;27;96944;-68
2023/02/11 07:23:25;;;;;;;88.10;40.35;;;;;;;9.32;67.51;102281.88;5034273;27;96864;-69
2023/02/11 07:25:51;;;;;;;87.97;40.63;;;;;;;9.38;67.44;102281.00;5018721;27;98912;-69
2023/02/11 07:28:18;;;;;;;81.03;40.33;;;;;;;9.42;67.75;102287.97;5024691;27;98900;-69
2023/02/11 07:30:48;;;;;;;91.18;42.95;;;;;;;9.25;68.04;102289.84;5023212;27;98974;-68
2023/02/11 07:33:16;;;;;;;86.28;40.70;;;;;;;9.23;68.42;102275.78;5024131;27;96955;-69
2023/02/11 07:35:43;;;;;;;86.68;40.53;;;;;;;9.47;67.61;102278.25;5021062;27;99347;-69
2023/02/11 07:38:09;;;;;;;89.95;41.90;;;;;;;9.33;67.68;102277.47;5027921;28;99626;-68
2023/02/11 07:40:36;;;;;;;76.38;37.88;;;;;;;9.11;68.67;102266.19;5029381;27;96656;-68
2023/02/11 07:43:03;;;;;;;80.50;41.10;;;;;;;9.41;67.78;102273.91;5027424;27;97266;-69
2023/02/11 07:45:30;;;;;;;89.47;41.85;;;;;;;9.18;68.42;102275.81;5027411;27;99133;-68
2023/02/11 07:47:56;;;;;;;84.00;39.97;;;;;;;9.29;68.31;102275.75;5035251;27;97345;-67
2023/02/11 07:50:24;;;;;;;84.97;40.97;;;;;;;9.29;68.07;102275.75;5033481;27;97084;-69
2023/02/11 07:52:51;;;;;;;87.47;40.75;;;;;;;9.37;67.50;102266.03;5026301;28;97039;-68
2023/02/11 07:55:17;;;;;;;89.57;40.95;;;;;;;9.57;67.00;102266.78;5024993;28;100185;-68
2023/02/11 07:57:44;;;;;;;86.20;39.70;;;;;;;9.68;66.23;102275.47;5021029;28;98973;-71
2023/02/11 08:00:12;;;;;;;85.60;39.90;;;;;;;9.47;66.85;102281.78;5027498;28;96745;-69
2023/02/11 08:02:38;;;;;;;86.72;39.22;;;;;;;9.53;66.67;102296.69;5027323;27;99059;-70
2023/02/11 08:05:05;;;;;;;80.30;38.63;;;;;;;9.72;66.08;102276.31;5019212;27;98926;-68
2023/02/11 08:07:33;;;;;;;84.32;39.08;;;;;;;9.67;66.67;102273.72;5022938;27;98912;-69
2023/02/11 08:09:59;;;;;;;87.60;39.67;;;;;;;9.50;67.44;102297.63;5028498;27;96871;-69
2023/02/11 08:12:25;;;;;;;85.32;40.08;;;;;;;9.73;66.91;102289.50;5031225;27;97190;-70
2023/02/11 08:14:52;;;;;;;79.72;39.70;;;;;;;9.72;66.65;102303.59;5021358;27;99774;-70
2023/02/11 08:17:18;;;;;;;82.60;38.75;;;;;;;9.64;67.42;102301.91;5021985;27;98712;-69
2023/02/11 08:19:45;;;;;;;83.65;37.72;;;;;;;9.54;68.11;102324.84;5029553;27;96861;-69
2023/02/11 08:22:11;;;;;;;87.50;39.55;;;;;;;9.79;67.24;102333.47;5022329;27;99029;-69
2023/02/11 08:24:39;;;;;;;83.38;39.70;;;;;;;9.90;66.85;102329.00;5017460;27;99436;-69
2023/02/11 08:27:06;;;;;;;82.32;38.92;;;;;;;9.71;67.59;102328.28;5028138;27;99040;-70
2023/02/11 08:29:32;;;;;;;82.63;37.10;;;;;;;9.64;67.97;102329.19;5027319;27;98689;-70
2023/02/11 08:31:59;;;;;;;84.97;39.80;;;;;;;9.85;67.31;102326.38;5026984;27;97993;-69
2023/02/11 08:34:25;;;;;;;79.78;38.42;;;;;;;10.00;67.04;102326.28;5030091;27;98960;-69
2023/02/11 08:36:52;;;;;;;89.70;39.33;;;;;;;10.07;67.02;102324.44;5027540;27;98100;-70
2023/02/11 08:39:22;;;;;;;83.38;38.45;;;;;;;10.08;66.92;102326.22;5027867;27;98922;-69
2023/02/11 08:41:52;;;;;;;88.68;39.95;;;;;;;10.04;67.30;102328.91;5017028;27;99079;-70
2023/02/11 08:44:19;;;;;;;86.50;39.28;;;;;;;10.04;67.19;102331.53;5025669;27;101416;-70
2023/02/11 08:46:46;;;;;;;95.32;39.83;;;;;;;9.69;68.72;102345.88;5019408;27;99058;-70
2023/02/11 08:49:14;;;;;;;80.22;38.13;;;;;;;9.69;68.64;102350.28;5021423;27;98110;-70
2023/02/11 08:51:41;;;;;;;73.53;33.38;;;;;;;9.67;68.64;102331.78;5021136;27;98344;-70
2023/02/11 08:54:08;;;;;;;77.97;38.72;;;;;;;9.77;68.86;102317.66;5016910;27;99510;-69
2023/02/11 08:56:35;;;;;;;79.30;37.92;;;;;;;9.91;67.98;102310.47;5016675;27;97780;-72
2023/02/11 08:59:03;;;;;;;81.30;38.15;;;;;;;10.10;67.44;102305.06;5020027;27;96841;-71
2023/02/11 09:01:31;;;;;;;78.85;37.30;;;;;;;10.23;66.61;102304.09;5023686;27;97582;-71
2023/02/11 09:04:00;;;;;;;74.43;36.67;;;;;;;10.26;66.41;102311.97;5021624;27;99267;-72
2023/02/11 09:06:27;;;;;;;84.47;40.13;;;;;;;10.26;67.07;102306.69;5027225;27;98939;-73
2023/02/11 09:08:56;;;;;;;81.50;36.42;;;;;;;9.72;68.86;102298.31;5025933;27;97128;-72
2023/02/11 09:11:26;;;;;;;77.90;35.53;;;;;;;10.00;68.38;102305.13;5020840;27;98618;-73
2023/02/11 09:13:53;;;;;;;73.10;35.60;;;;;;;10.16;67.61;102302.38;5015578;28;99195;-71
2023/02/11 09:16:22;;;;;;;80.47;38.30;;;;;;;10.11;67.77;102314.75;5017741;28;98830;-71
2023/02/11 09:18:49;;;;;;;75.70;36.92;;;;;;;10.02;68.36;102317.47;5030115;27;99361;-73
2023/02/11 09:21:18;;;;;;;74.45;36.35;;;;;;;10.04;68.24;102310.41;5021353;27;97006;-72
2023/02/11 09:23:46;;;;;;;74.10;35.10;;;;;;;9.68;69.67;102317.72;5019715;27;98475;-73
2023/02/11 09:26:17;;;;;;;81.15;35.67;;;;;;;9.56;70.69;102325.72;5018977;27;98987;-74
2023/02/11 09:28:44;;;;;;;74.72;36.75;;;;;;;9.80;70.05;102344.03;5020967;27;98042;-74
2023/02/11 09:31:12;;;;;;;79.50;34.88;;;;;;;9.91;68.87;102331.59;5017427;27;96846;-72
2023/02/11 09:33:46;;;;;;;72.78;35.45;;;;;;;10.25;67.72;102326.97;5023336;27;98778;-72
2023/02/11 09:36:15;;;;;;;72.55;35.25;;;;;;;10.06;68.55;102320.06;5022119;27;99937;-72
2023/02/11 09:38:41;;;;;;;69.80;34.80;;;;;;;10.16;68.07;102332.31;5024345;27;97171;-72
2023/02/11 09:41:25;;;;;;;74.68;35.45;;;;;;;9.96;69.36;102348.31;5020105;27;98710;-72
2023/02/11 09:43:55;;;;;;;68.97;33.50;;;;;;;10.20;68.42;102343.75;5024333;27;99306;-73
2023/02/11 09:46:23;;;;;;;74.05;35.17;;;;;;;10.37;67.66;102349.78;5022156;27;99001;-74
2023/02/11 09:48:55;;;;;;;68.65;33.75;;;;;;;9.98;69.28;102346.53;5020678;28;96905;-74
2023/02/11 09:51:41;;;;;;;75.22;34.55;;;;;;;9.72;70.06;102340.56;5031070;27;98842;-71
2023/02/11 09:54:17;;;;;;;69.28;33.35;;;;;;;9.91;69.75;102362.44;5021993;28;97769;-71
2023/02/11 09:56:44;;;;;;;65.82;34.08;;;;;;;10.28;68.59;102366.56;5023600;27;98868;-73
2023/02/11 09:59:14;;;;;;;66.07;32.30;;;;;;;10.22;68.65;102364.00;5020935;27;97472;-72
2023/02/11 10:01:47;;;;;;;65.63;31.30;;;;;;;10.06;69.85;102375.50;5019286;27;98871;-72
2023/02/11 10:04:27;;;;;;;61.95;31.67;;;;;;;10.41;68.44;102375.28;5018303;27;100067;-73
2023/02/11 10:06:56;;;;;;;70.90;33.13;;;;;;;10.11;69.78;102365.78;5017283;27;99275;-72
2023/02/11 10:09:52;;;;;;;69.88;33.05;;;;;;;10.07;70.32;102363.19;5022369;27;97227;-73
2023/02/11 10:12:32;;;;;;;68.32;34.80;;;;;;;10.05;70.22;102371.13;5025074;28;96881;-71
2023/02/11 10:15:32;;;;;;;69.88;33.00;;;;;;;10.11;70.65;102375.50;5016765;27;99530;-70
2023/02/11 10:18:33;;;;;;;64.05;31.75;;;;;;;10.29;70.05;102357.75;4975706;28;99091;-69
2023/02/11 10:21:12;;;;;;;64.72;31.30;;;;;;;10.56;69.37;102361.91;5024542;28;97800;-71
2023/02/11 10:23:44;;;;;;;62.08;30.85;;;;;;;10.13;71.45;102365.78;5017293;28;96876;-71
2023/02/11 10:26:14;;;;;;;63.55;31.60;;;;;;;10.54;69.78;102360.16;5028691;27;99950;-68
2023/02/11 10:28:46;;;;;;;73.60;33.85;;;;;;;10.52;69.79;102373.41;5028752;27;97762;-69
2023/02/11 10:31:16;;;;;;;66.65;33.42;;;;;;;10.74;68.85;102374.06;5017844;27;96739;-69
2023/02/11 10:33:46;;;;;;;65.18;32.58;;;;;;;10.84;68.35;102374.81;5030488;27;97376;-69
2023/02/11 10:36:17;;;;;;;67.20;33.30;;;;;;;10.84;68.68;102385.41;5029936;28;99357;-69
2023/02/11 10:38:44;;;;;;;66.55;32.22;;;;;;;10.26;71.00;102386.84;5019626;27;101704;-69
2023/02/11 10:41:17;;;;;;;64.03;32.03;;;;;;;10.44;70.17;102374.34;5021978;28;97273;-70
2023/02/11 10:43:43;;;;;;;69.13;32.92;;;;;;;10.39;70.80;102366.47;5019460;27;96825;-69
2023/02/11 10:46:17;;;;;;;62.05;32.15;;;;;;;10.56;70.29;102366.31;5026535;27;99434;-69
2023/02/11 10:48:48;;;;;;;64.38;29.15;;;;;;;10.60;70.40;102355.69;5018936;27;100864;-70
2023/02/11 10:51:21;;;;;;;69.30;31.15;;;;;;;10.72;70.07;102345.00;5021646;27;97020;-69
2023/02/11 10:53:50;;;;;;;59.13;29.95;;;;;;;10.42;71.40;102345.31;5020380;27;97314;-69
2023/02/11 10:56:23;;;;;;;71.68;30.63;;;;;;;10.39;71.57;102355.91;5028986;28;97657;-69
2023/02/11 10:58:57;;;;;;;66.95;31.17;;;;;;;10.68;70.89;102352.97;5024954;27;98185;-69
2023/02/11 11:01:38;;;;;;;71.18;31.48;;;;;;;10.80;70.13;102347.56;5026340;27;97650;-69
2023/02/11 11:04:05;;;;;;;60.83;29.60;;;;;;;10.67;70.59;102344.16;5031400;27;97578;-68
2023/02/11 11:06:35;;;;;;;56.42;29.80;;;;;;;10.62;71.14;102340.72;5020635;27;98984;-70
2023/02/11 11:09:01;;;;;;;61.92;30.15;;;;;;;10.57;71.69;102336.34;5023711;27;98625;-68
2023/02/11 11:11:28;;;;;;;70.25;31.17;;;;;;;10.38;72.35;102346.22;5014728;27;96856;-70
2023/02/11 11:13:56;;;;;;;57.97;29.35;;;;;;;10.58;72.00;102340.72;5026794;27;96806;-70
2023/02/11 11:16:25;;;;;;;58.60;28.20;;;;;;;10.06;74.08;102340.31;5025903;27;99016;-70
2023/02/11 11:18:53;;;;;;;63.45;29.98;;;;;;;10.34;73.28;102358.59;5033558;27;99717;-73
2023/02/11 11:21:23;;;;;;;60.25;29.05;;;;;;;10.43;72.70;102346.19;5030126;28;97273;-73
2023/02/11 11:23:55;;;;;;;61.00;29.55;;;;;;;10.57;72.69;102342.50;5027300;27;97064;-73
2023/02/11 11:26:22;;;;;;;64.55;28.83;;;;;;;10.42;73.24;102334.75;5027579;28;101508;-70
2023/02/11 11:28:57;;;;;;;57.72;27.90;;;;;;;10.38;73.44;102330.34;5025231;27;99082;-70